sensor_id;sensor_type;location;lat;lon;timestamp;pressure;altitude;pressure_sealevel;temperature;humidity
55675;BME280;41562;44.330;23.802;2023-04-20T00:01:29;99793.03;;;10.43;100.00
55675;BME280;41562;44.330;23.802;2023-04-20T00:03:56;99787.72;;;10.38;100.00
55675;BME280;41562;44.330;23.802;2023-04-20T00:06:25;99791.47;;;10.37;100.00
55675;BME280;41562;44.330;23.802;2023-04-20T00:08:52;99788.03;;;10.37;100.00
55675;BME280;41562;44.330;23.802;2023-04-20T00:11:20;99783.19;;;10.39;100.00
55675;BME280;41562;44.330;23.802;2023-04-20T00:13:47;99792.16;;;10.53;100.00
55675;BME280;41562;44.330;23.802;2023-04-20T00:16:14;99787.13;;;10.46;100.00
55675;BME280;41562;44.330;23.802;2023-04-20T00:18:42;99778.00;;;10.53;100.00
55675;BME280;41562;44.330;23.802;2023-04-20T00:21:10;99779.34;;;10.50;100.00
55675;BME280;41562;44.330;23.802;2023-04-20T00:23:37;99785.59;;;10.40;100.00
55675;BME280;41562;44.330;23.802;2023-04-20T00:26:04;99779.22;;;10.36;100.00
55675;BME280;41562;44.330;23.802;2023-04-20T00:28:32;99785.00;;;10.09;100.00
55675;BME280;41562;44.330;23.802;2023-04-20T00:30:59;99779.00;;;10.28;100.00
55675;BME280;41562;44.330;23.802;2023-04-20T00:33:26;99778.69;;;10.34;100.00
55675;BME280;41562;44.330;23.802;2023-04-20T00:35:53;99776.56;;;10.36;100.00
55675;BME280;41562;44.330;23.802;2023-04-20T00:38:21;99776.56;;;10.36;100.00
55675;BME280;41562;44.330;23.802;2023-04-20T00:40:48;99767.84;;;10.21;100.00
55675;BME280;41562;44.330;23.802;2023-04-20T00:43:20;99764.16;;;10.12;100.00
55675;BME280;41562;44.330;23.802;2023-04-20T00:45:50;99768.41;;;10.13;100.00
55675;BME280;41562;44.330;23.802;2023-04-20T00:48:18;99764.75;;;10.03;100.00
55675;BME280;41562;44.330;23.802;2023-04-20T00:50:47;99770.59;;;10.05;100.00
55675;BME280;41562;44.330;23.802;2023-04-20T00:53:16;99770.00;;;10.19;100.00
55675;BME280;41562;44.330;23.802;2023-04-20T00:55:43;99771.53;;;10.25;100.00
55675;BME280;41562;44.330;23.802;2023-04-20T00:58:10;99773.78;;;10.07;100.00
55675;BME280;41562;44.330;23.802;2023-04-20T01:00:38;99770.38;;;10.02;100.00
55675;BME280;41562;44.330;23.802;2023-04-20T01:03:06;99778.69;;;9.95;100.00
55675;BME280;41562;44.330;23.802;2023-04-20T01:05:34;99767.91;;;10.05;100.00
55675;BME280;41562;44.330;23.802;2023-04-20T01:08:01;99773.03;;;10.02;100.00
55675;BME280;41562;44.330;23.802;2023-04-20T01:10:28;99771.22;;;9.97;100.00
55675;BME280;41562;44.330;23.802;2023-04-20T01:12:55;99771.06;;;9.79;100.00
55675;BME280;41562;44.330;23.802;2023-04-20T01:15:23;99778.03;;;9.75;100.00
55675;BME280;41562;44.330;23.802;2023-04-20T01:17:50;99772.72;;;9.69;100.00
55675;BME280;41562;44.330;23.802;2023-04-20T01:20:17;99768.22;;;9.65;100.00
55675;BME280;41562;44.330;23.802;2023-04-20T01:22:49;99769.00;;;9.65;100.00
55675;BME280;41562;44.330;23.802;2023-04-20T01:25:17;99770.91;;;9.55;100.00
55675;BME280;41562;44.330;23.802;2023-04-20T01:27:44;99763.84;;;9.35;100.00
55675;BME280;41562;44.330;23.802;2023-04-20T01:30:12;99757.66;;;9.45;100.00
55675;BME280;41562;44.330;23.802;2023-04-20T01:32:39;99763.03;;;9.35;100.00
55675;BME280;41562;44.330;23.802;2023-04-20T01:35:07;99765.22;;;9.22;100.00
55675;BME280;41562;44.330;23.802;2023-04-20T01:37:35;99771.03;;;9.29;100.00
55675;BME280;41562;44.330;23.802;2023-04-20T01:40:03;99776.09;;;9.36;100.00
55675;BME280;41562;44.330;23.802;2023-04-20T01:42:30;99779.56;;;9.42;100.00
55675;BME280;41562;44.330;23.802;2023-04-20T01:44:58;99769.84;;;9.56;100.00
55675;BME280;41562;44.330;23.802;2023-04-20T01:47:25;99766.31;;;9.21;100.00
55675;BME280;41562;44.330;23.802;2023-04-20T01:49:52;99777.03;;;9.01;100.00
55675;BME280;41562;44.330;23.802;2023-04-20T01:52:20;99771.16;;;8.99;100.00
55675;BME280;41562;44.330;23.802;2023-04-20T01:54:47;99766.63;;;9.00;100.00
55675;BME280;41562;44.330;23.802;2023-04-20T01:57:14;99763.75;;;8.86;100.00
55675;BME280;41562;44.330;23.802;2023-04-20T01:59:41;99758.16;;;8.87;100.00
55675;BME280;41562;44.330;23.802;2023-04-20T02:02:10;99760.50;;;8.99;100.00
55675;BME280;41562;44.330;23.802;2023-04-20T02:04:37;99764.53;;;8.92;100.00
55675;BME280;41562;44.330;23.802;2023-04-20T02:07:04;99767.50;;;8.80;100.00
55675;BME280;41562;44.330;23.802;2023-04-20T02:09:32;99761.91;;;8.66;100.00
55675;BME280;41562;44.330;23.802;2023-04-20T02:11:59;99762.19;;;8.70;100.00
55675;BME280;41562;44.330;23.802;2023-04-20T02:14:26;99756.81;;;8.80;100.00
55675;BME280;41562;44.330;23.802;2023-04-20T02:16:53;99754.22;;;8.65;100.00
55675;BME280;41562;44.330;23.802;2023-04-20T02:19:20;99760.59;;;8.69;100.00
55675;BME280;41562;44.330;23.802;2023-04-20T02:21:47;99761.66;;;8.68;100.00
55675;BME280;41562;44.330;23.802;2023-04-20T02:24:15;99756.91;;;8.60;100.00
55675;BME280;41562;44.330;23.802;2023-04-20T02:26:45;99754.47;;;8.63;100.00
55675;BME280;41562;44.330;23.802;2023-04-20T02:29:12;99756.63;;;8.56;100.00
55675;BME280;41562;44.330;23.802;2023-04-20T02:31:40;99759.25;;;8.66;100.00
55675;BME280;41562;44.330;23.802;2023-04-20T02:34:07;99770.72;;;8.67;100.00
55675;BME280;41562;44.330;23.802;2023-04-20T02:36:34;99759.84;;;8.53;100.00
55675;BME280;41562;44.330;23.802;2023-04-20T02:39:01;99755.03;;;8.45;100.00
55675;BME280;41562;44.330;23.802;2023-04-20T02:41:29;99765.91;;;8.69;100.00
55675;BME280;41562;44.330;23.802;2023-04-20T02:43:56;99764.88;;;8.65;100.00
55675;BME280;41562;44.330;23.802;2023-04-20T02:46:23;99758.47;;;8.71;100.00
55675;BME280;41562;44.330;23.802;2023-04-20T02:48:50;99764.28;;;8.88;100.00
55675;BME280;41562;44.330;23.802;2023-04-20T02:51:17;99760.34;;;8.55;100.00
55675;BME280;41562;44.330;23.802;2023-04-20T02:53:45;99760.34;;;8.65;100.00
55675;BME280;41562;44.330;23.802;2023-04-20T02:56:12;99756.03;;;8.74;100.00
55675;BME280;41562;44.330;23.802;2023-04-20T02:58:39;99759.00;;;8.68;100.00
55675;BME280;41562;44.330;23.802;2023-04-20T03:01:06;99752.63;;;8.59;100.00
55675;BME280;41562;44.330;23.802;2023-04-20T03:03:33;99758.78;;;8.44;100.00
55675;BME280;41562;44.330;23.802;2023-04-20T03:06:01;99759.56;;;8.50;100.00
55675;BME280;41562;44.330;23.802;2023-04-20T03:08:28;99769.66;;;8.63;100.00
55675;BME280;41562;44.330;23.802;2023-04-20T03:10:55;99762.75;;;8.52;100.00
55675;BME280;41562;44.330;23.802;2023-04-20T03:13:23;99765.41;;;8.41;100.00
55675;BME280;41562;44.330;23.802;2023-04-20T03:15:50;99769.41;;;8.64;100.00
55675;BME280;41562;44.330;23.802;2023-04-20T03:18:17;99770.72;;;8.62;100.00
55675;BME280;41562;44.330;23.802;2023-04-20T03:20:45;99775.03;;;8.32;100.00
55675;BME280;41562;44.330;23.802;2023-04-20T03:23:13;99762.22;;;8.44;100.00
55675;BME280;41562;44.330;23.802;2023-04-20T03:25:40;99763.84;;;8.40;100.00
55675;BME280;41562;44.330;23.802;2023-04-20T03:28:07;99764.34;;;8.47;100.00
55675;BME280;41562;44.330;23.802;2023-04-20T03:30:34;99766.50;;;8.45;100.00
55675;BME280;41562;44.330;23.802;2023-04-20T03:33:02;99771.84;;;12.22;100.00
55675;BME280;41562;44.330;23.802;2023-04-20T03:35:29;99776.34;;;11.70;100.00
55675;BME280;41562;44.330;23.802;2023-04-20T03:37:56;99782.22;;;12.42;95.15
55675;BME280;41562;44.330;23.802;2023-04-20T03:40:23;99783.34;;;12.23;99.05
55675;BME280;41562;44.330;23.802;2023-04-20T03:42:51;99783.97;;;12.20;97.33
55675;BME280;41562;44.330;23.802;2023-04-20T03:45:35;99783.22;;;12.46;96.86
55675;BME280;41562;44.330;23.802;2023-04-20T03:48:03;99786.22;;;12.13;97.87
55675;BME280;41562;44.330;23.802;2023-04-20T03:50:30;99781.31;;;12.01;100.00
55675;BME280;41562;44.330;23.802;2023-04-20T03:52:58;99783.03;;;12.89;93.54
55675;BME280;41562;44.330;23.802;2023-04-20T03:55:26;99790.91;;;13.13;90.55
55675;BME280;41562;44.330;23.802;2023-04-20T03:57:54;99790.03;;;13.67;89.67
55675;BME280;41562;44.330;23.802;2023-04-20T04:00:21;99789.72;;;13.33;87.17
55675;BME280;41562;44.330;23.802;2023-04-20T04:02:49;99787.81;;;11.95;95.83
55675;BME280;41562;44.330;23.802;2023-04-20T04:05:18;99799.69;;;11.46;96.84
55675;BME280;41562;44.330;23.802;2023-04-20T04:07:46;99799.63;;;11.51;96.01
55675;BME280;41562;44.330;23.802;2023-04-20T04:10:13;99788.03;;;10.89;98.75
55675;BME280;41562;44.330;23.802;2023-04-20T04:12:43;99784.75;;;9.62;100.00
55675;BME280;41562;44.330;23.802;2023-04-20T04:15:11;99793.81;;;9.07;100.00
55675;BME280;41562;44.330;23.802;2023-04-20T04:17:39;99794.41;;;8.83;100.00
55675;BME280;41562;44.330;23.802;2023-04-20T04:20:07;99793.63;;;8.73;100.00
55675;BME280;41562;44.330;23.802;2023-04-20T04:22:34;99795.78;;;8.61;100.00
55675;BME280;41562;44.330;23.802;2023-04-20T04:25:02;99795.78;;;8.51;100.00
55675;BME280;41562;44.330;23.802;2023-04-20T04:27:29;99791.00;;;8.37;100.00
55675;BME280;41562;44.330;23.802;2023-04-20T04:29:56;99797.91;;;8.18;100.00
55675;BME280;41562;44.330;23.802;2023-04-20T04:32:23;99792.03;;;8.16;100.00
55675;BME280;41562;44.330;23.802;2023-04-20T04:34:51;99791.50;;;8.24;100.00
55675;BME280;41562;44.330;23.802;2023-04-20T04:37:18;99791.81;;;8.38;100.00
55675;BME280;41562;44.330;23.802;2023-04-20T04:39:45;99794.44;;;8.23;100.00
55675;BME280;41562;44.330;23.802;2023-04-20T04:42:13;99794.19;;;8.19;100.00
55675;BME280;41562;44.330;23.802;2023-04-20T04:44:40;99792.84;;;8.12;100.00
55675;BME280;41562;44.330;23.802;2023-04-20T04:47:07;99798.75;;;8.39;100.00
55675;BME280;41562;44.330;23.802;2023-04-20T04:49:34;99793.41;;;8.44;100.00
55675;BME280;41562;44.330;23.802;2023-04-20T04:52:02;99800.31;;;8.50;100.00
55675;BME280;41562;44.330;23.802;2023-04-20T04:54:29;99798.44;;;8.56;100.00
55675;BME280;41562;44.330;23.802;2023-04-20T04:56:56;99800.31;;;8.70;100.00
55675;BME280;41562;44.330;23.802;2023-04-20T04:59:23;99808.31;;;8.60;100.00
55675;BME280;41562;44.330;23.802;2023-04-20T05:01:51;99806.97;;;8.68;100.00
55675;BME280;41562;44.330;23.802;2023-04-20T05:04:37;99810.13;;;8.80;100.00
55675;BME280;41562;44.330;23.802;2023-04-20T05:07:13;99801.63;;;8.78;100.00
55675;BME280;41562;44.330;23.802;2023-04-20T05:09:40;99805.38;;;8.62;100.00
55675;BME280;41562;44.330;23.802;2023-04-20T05:12:07;99801.06;;;8.81;100.00
55675;BME280;41562;44.330;23.802;2023-04-20T05:14:35;99798.44;;;8.76;100.00
55675;BME280;41562;44.330;23.802;2023-04-20T05:17:02;99809.63;;;8.63;100.00
55675;BME280;41562;44.330;23.802;2023-04-20T05:19:30;99808.56;;;8.54;100.00
55675;BME280;41562;44.330;23.802;2023-04-20T05:21:57;99803.25;;;8.64;100.00
55675;BME280;41562;44.330;23.802;2023-04-20T05:24:25;99803.50;;;8.67;100.00
55675;BME280;41562;44.330;23.802;2023-04-20T05:26:52;99805.91;;;8.54;100.00
55675;BME280;41562;44.330;23.802;2023-04-20T05:29:19;99807.00;;;8.58;100.00
55675;BME280;41562;44.330;23.802;2023-04-20T05:31:47;99801.63;;;8.68;100.00
55675;BME280;41562;44.330;23.802;2023-04-20T05:34:14;99807.50;;;8.70;100.00
55675;BME280;41562;44.330;23.802;2023-04-20T05:36:42;99805.84;;;8.94;100.00
55675;BME280;41562;44.330;23.802;2023-04-20T05:39:09;99804.25;;;8.93;100.00
55675;BME280;41562;44.330;23.802;2023-04-20T05:41:36;99801.59;;;8.93;100.00
55675;BME280;41562;44.330;23.802;2023-04-20T05:44:04;99803.97;;;9.10;100.00
55675;BME280;41562;44.330;23.802;2023-04-20T05:46:31;99810.34;;;9.14;100.00
55675;BME280;41562;44.330;23.802;2023-04-20T05:48:59;99814.56;;;9.25;100.00
55675;BME280;41562;44.330;23.802;2023-04-20T05:51:26;99817.50;;;9.18;100.00
55675;BME280;41562;44.330;23.802;2023-04-20T05:53:55;99818.31;;;9.19;100.00
55675;BME280;41562;44.330;23.802;2023-04-20T05:56:22;99819.06;;;9.29;100.00
55675;BME280;41562;44.330;23.802;2023-04-20T05:58:50;99820.63;;;9.46;100.00
55675;BME280;41562;44.330;23.802;2023-04-20T06:01:17;99820.06;;;9.54;100.00
55675;BME280;41562;44.330;23.802;2023-04-20T06:03:44;99815.22;;;9.61;100.00
55675;BME280;41562;44.330;23.802;2023-04-20T06:06:12;99817.56;;;9.67;100.00
55675;BME280;41562;44.330;23.802;2023-04-20T06:08:42;99817.03;;;9.71;100.00
55675;BME280;41562;44.330;23.802;2023-04-20T06:11:09;99819.31;;;9.92;100.00
55675;BME280;41562;44.330;23.802;2023-04-20T06:13:37;99817.13;;;9.99;100.00
55675;BME280;41562;44.330;23.802;2023-04-20T06:16:04;99822.13;;;10.11;100.00
55675;BME280;41562;44.330;23.802;2023-04-20T06:18:32;99822.75;;;9.93;100.00
55675;BME280;41562;44.330;23.802;2023-04-20T06:20:59;99820.31;;;10.01;100.00
55675;BME280;41562;44.330;23.802;2023-04-20T06:23:26;99817.66;;;10.01;100.00
55675;BME280;41562;44.330;23.802;2023-04-20T06:25:53;99819.09;;;10.28;100.00
55675;BME280;41562;44.330;23.802;2023-04-20T06:28:23;99824.28;;;10.09;100.00
55675;BME280;41562;44.330;23.802;2023-04-20T06:30:51;99821.91;;;10.02;100.00
55675;BME280;41562;44.330;23.802;2023-04-20T06:33:18;99826.59;;;10.26;100.00
55675;BME280;41562;44.330;23.802;2023-04-20T06:35:48;99819.69;;;10.15;100.00
55675;BME280;41562;44.330;23.802;2023-04-20T06:38:16;99823.94;;;10.21;100.00
55675;BME280;41562;44.330;23.802;2023-04-20T06:40:43;99819.56;;;10.35;100.00
55675;BME280;41562;44.330;23.802;2023-04-20T06:43:10;99828.69;;;10.63;100.00
55675;BME280;41562;44.330;23.802;2023-04-20T06:45:41;99819.47;;;10.79;100.00
55675;BME280;41562;44.330;23.802;2023-04-20T06:48:08;99828.03;;;11.28;100.00
55675;BME280;41562;44.330;23.802;2023-04-20T06:50:54;99827.38;;;11.60;100.00
55675;BME280;41562;44.330;23.802;2023-04-20T06:53:21;99829.81;;;11.81;100.00
55675;BME280;41562;44.330;23.802;2023-04-20T06:55:48;99829.22;;;12.54;100.00
55675;BME280;41562;44.330;23.802;2023-04-20T06:58:16;99832.47;;;13.29;100.00
55675;BME280;41562;44.330;23.802;2023-04-20T07:00:43;99837.16;;;14.00;99.95
55675;BME280;41562;44.330;23.802;2023-04-20T07:03:10;99829.34;;;14.13;96.84
55675;BME280;41562;44.330;23.802;2023-04-20T07:05:39;99839.63;;;14.77;92.95
55675;BME280;41562;44.330;23.802;2023-04-20T07:08:06;99838.28;;;14.22;95.38
55675;BME280;41562;44.330;23.802;2023-04-20T07:10:34;99835.78;;;13.89;96.92
55675;BME280;41562;44.330;23.802;2023-04-20T07:13:02;99836.31;;;14.36;96.60
55675;BME280;41562;44.330;23.802;2023-04-20T07:15:29;99844.59;;;14.62;95.79
55675;BME280;41562;44.330;23.802;2023-04-20T07:17:56;99854.44;;;14.44;94.63
55675;BME280;41562;44.330;23.802;2023-04-20T07:20:24;99850.13;;;14.21;95.34
55675;BME280;41562;44.330;23.802;2023-04-20T07:22:54;99856.72;;;14.15;96.55
55675;BME280;41562;44.330;23.802;2023-04-20T07:25:21;99854.63;;;14.12;98.83
55675;BME280;41562;44.330;23.802;2023-04-20T07:27:49;99852.31;;;13.83;98.28
55675;BME280;41562;44.330;23.802;2023-04-20T07:30:17;99850.91;;;13.85;98.21
55675;BME280;41562;44.330;23.802;2023-04-20T07:32:44;99860.50;;;13.78;97.99
55675;BME280;41562;44.330;23.802;2023-04-20T07:35:12;99846.97;;;13.55;99.73
55675;BME280;41562;44.330;23.802;2023-04-20T07:37:39;99849.16;;;13.67;98.01
55675;BME280;41562;44.330;23.802;2023-04-20T07:40:08;99853.03;;;14.10;96.83
55675;BME280;41562;44.330;23.802;2023-04-20T07:42:35;99858.47;;;13.97;97.17
55675;BME280;41562;44.330;23.802;2023-04-20T07:45:06;99850.84;;;14.13;97.92
55675;BME280;41562;44.330;23.802;2023-04-20T07:47:35;99857.00;;;14.71;94.14
55675;BME280;41562;44.330;23.802;2023-04-20T07:50:04;99850.81;;;14.26;95.13
55675;BME280;41562;44.330;23.802;2023-04-20T07:52:32;99851.00;;;14.74;94.62
55675;BME280;41562;44.330;23.802;2023-04-20T07:55:00;99852.56;;;15.28;92.01
55675;BME280;41562;44.330;23.802;2023-04-20T07:57:28;99853.25;;;15.51;90.36
55675;BME280;41562;44.330;23.802;2023-04-20T07:59:55;99861.09;;;15.70;88.51
55675;BME280;41562;44.330;23.802;2023-04-20T08:02:23;99855.59;;;15.92;85.90
55675;BME280;41562;44.330;23.802;2023-04-20T08:04:51;99855.91;;;16.08;86.25
55675;BME280;41562;44.330;23.802;2023-04-20T08:07:19;99854.47;;;16.19;83.48
55675;BME280;41562;44.330;23.802;2023-04-20T08:09:46;99860.38;;;16.21;82.89
55675;BME280;41562;44.330;23.802;2023-04-20T08:12:14;99854.16;;;16.55;81.67
55675;BME280;41562;44.330;23.802;2023-04-20T08:14:41;99853.84;;;16.65;82.57
55675;BME280;41562;44.330;23.802;2023-04-20T08:17:09;99847.63;;;16.82;80.98
55675;BME280;41562;44.330;23.802;2023-04-20T08:19:36;99855.31;;;17.09;78.86
55675;BME280;41562;44.330;23.802;2023-04-20T08:22:04;99844.19;;;17.49;76.39
55675;BME280;41562;44.330;23.802;2023-04-20T08:24:32;99838.13;;;17.52;78.13
55675;BME280;41562;44.330;23.802;2023-04-20T08:26:59;99841.28;;;17.54;75.47
55675;BME280;41562;44.330;23.802;2023-04-20T08:29:27;99836.19;;;17.61;74.32
55675;BME280;41562;44.330;23.802;2023-04-20T08:31:54;99837.31;;;17.89;75.01
55675;BME280;41562;44.330;23.802;2023-04-20T08:34:22;99828.00;;;17.99;76.21
55675;BME280;41562;44.330;23.802;2023-04-20T08:36:50;99833.44;;;17.90;72.63
55675;BME280;41562;44.330;23.802;2023-04-20T08:39:19;99832.13;;;18.17;70.05
55675;BME280;41562;44.330;23.802;2023-04-20T08:41:48;99825.75;;;18.55;70.28
55675;BME280;41562;44.330;23.802;2023-04-20T08:44:16;99826.88;;;18.86;71.55
55675;BME280;41562;44.330;23.802;2023-04-20T08:46:46;99825.44;;;19.13;67.40
55675;BME280;41562;44.330;23.802;2023-04-20T08:49:18;99827.13;;;19.42;66.65
55675;BME280;41562;44.330;23.802;2023-04-20T08:51:46;99817.31;;;19.62;64.98
55675;BME280;41562;44.330;23.802;2023-04-20T08:54:14;99812.34;;;19.27;68.29
55675;BME280;41562;44.330;23.802;2023-04-20T08:56:44;99811.56;;;19.63;66.00
55675;BME280;41562;44.330;23.802;2023-04-20T08:59:13;99814.47;;;19.83;64.71
55675;BME280;41562;44.330;23.802;2023-04-20T09:01:42;99805.81;;;19.65;64.20
55675;BME280;41562;44.330;23.802;2023-04-20T09:04:21;99819.16;;;20.10;66.36
55675;BME280;41562;44.330;23.802;2023-04-20T09:06:53;99815.09;;;19.92;63.39
55675;BME280;41562;44.330;23.802;2023-04-20T09:09:23;99805.25;;;19.59;65.67
55675;BME280;41562;44.330;23.802;2023-04-20T09:12:07;99806.13;;;19.39;62.78
55675;BME280;41562;44.330;23.802;2023-04-20T09:14:42;99799.22;;;19.05;62.26
55675;BME280;41562;44.330;23.802;2023-04-20T09:17:09;99796.66;;;19.33;64.21
55675;BME280;41562;44.330;23.802;2023-04-20T09:19:37;99801.72;;;19.22;60.26
55675;BME280;41562;44.330;23.802;2023-04-20T09:22:04;99795.19;;;19.48;56.80
55675;BME280;41562;44.330;23.802;2023-04-20T09:24:33;99788.06;;;19.07;58.70
55675;BME280;41562;44.330;23.802;2023-04-20T09:27:16;99787.16;;;19.03;59.56
55675;BME280;41562;44.330;23.802;2023-04-20T09:29:59;99786.94;;;19.20;60.60
55675;BME280;41562;44.330;23.802;2023-04-20T09:32:27;99789.66;;;19.08;61.56
55675;BME280;41562;44.330;23.802;2023-04-20T09:34:55;99794.59;;;18.94;61.84
55675;BME280;41562;44.330;23.802;2023-04-20T09:37:23;99791.75;;;18.78;62.75
55675;BME280;41562;44.330;23.802;2023-04-20T09:39:54;99784.88;;;18.80;62.69
55675;BME280;41562;44.330;23.802;2023-04-20T09:42:27;99782.25;;;18.72;63.49
55675;BME280;41562;44.330;23.802;2023-04-20T09:44:56;99781.06;;;19.06;64.50
55675;BME280;41562;44.330;23.802;2023-04-20T09:47:23;99792.28;;;20.21;66.43
55675;BME280;41562;44.330;23.802;2023-04-20T09:49:52;99790.56;;;20.28;58.64
55675;BME280;41562;44.330;23.802;2023-04-20T09:52:21;99784.75;;;20.42;60.33
55675;BME280;41562;44.330;23.802;2023-04-20T09:54:50;99785.41;;;20.67;58.24
55675;BME280;41562;44.330;23.802;2023-04-20T09:57:18;99783.19;;;20.57;53.91
55675;BME280;41562;44.330;23.802;2023-04-20T09:59:46;99780.16;;;21.05;54.52
55675;BME280;41562;44.330;23.802;2023-04-20T10:02:13;99788.16;;;20.98;55.60
55675;BME280;41562;44.330;23.802;2023-04-20T10:05:10;99771.63;;;21.38;53.01
55675;BME280;41562;44.330;23.802;2023-04-20T10:07:38;99769.06;;;21.45;52.45
55675;BME280;41562;44.330;23.802;2023-04-20T10:12:49;99764.78;;;20.34;53.05
55675;BME280;41562;44.330;23.802;2023-04-20T10:15:17;99755.16;;;20.53;53.45
55675;BME280;41562;44.330;23.802;2023-04-20T10:17:45;99758.16;;;20.79;54.21
55675;BME280;41562;44.330;23.802;2023-04-20T10:22:53;99745.88;;;21.16;53.61
55675;BME280;41562;44.330;23.802;2023-04-20T10:25:24;99756.03;;;21.19;53.67
55675;BME280;41562;44.330;23.802;2023-04-20T10:27:53;99747.59;;;21.24;53.38
55675;BME280;41562;44.330;23.802;2023-04-20T10:30:21;99752.97;;;21.37;50.25
55675;BME280;41562;44.330;23.802;2023-04-20T10:33:07;99736.41;;;20.79;51.33
55675;BME280;41562;44.330;23.802;2023-04-20T10:35:49;99743.25;;;21.04;50.99
55675;BME280;41562;44.330;23.802;2023-04-20T10:38:50;99737.88;;;21.23;49.84
55675;BME280;41562;44.330;23.802;2023-04-20T10:41:17;99736.59;;;21.17;51.35
55675;BME280;41562;44.330;23.802;2023-04-20T10:43:44;99736.03;;;21.27;49.35
55675;BME280;41562;44.330;23.802;2023-04-20T10:46:16;99743.59;;;20.87;51.10
55675;BME280;41562;44.330;23.802;2023-04-20T10:48:59;99732.09;;;21.09;52.38
55675;BME280;41562;44.330;23.802;2023-04-20T10:51:28;99723.31;;;21.00;53.24
55675;BME280;41562;44.330;23.802;2023-04-20T10:54:02;99732.09;;;20.94;52.03
55675;BME280;41562;44.330;23.802;2023-04-20T10:56:43;99733.22;;;21.08;50.87
55675;BME280;41562;44.330;23.802;2023-04-20T10:59:16;99728.66;;;21.12;47.89
55675;BME280;41562;44.330;23.802;2023-04-20T11:01:47;99729.00;;;21.26;47.58
55675;BME280;41562;44.330;23.802;2023-04-20T11:04:15;99721.25;;;20.78;49.62
55675;BME280;41562;44.330;23.802;2023-04-20T11:06:46;99730.06;;;21.06;49.01
55675;BME280;41562;44.330;23.802;2023-04-20T11:09:20;99728.50;;;21.05;51.50
55675;BME280;41562;44.330;23.802;2023-04-20T11:12:02;99723.31;;;21.00;50.39
55675;BME280;41562;44.330;23.802;2023-04-20T11:14:35;99724.22;;;20.88;51.10
55675;BME280;41562;44.330;23.802;2023-04-20T11:17:03;99720.81;;;20.17;52.92
55675;BME280;41562;44.330;23.802;2023-04-20T11:19:33;99721.75;;;20.68;52.61
55675;BME280;41562;44.330;23.802;2023-04-20T11:22:04;99717.19;;;20.87;51.92
55675;BME280;41562;44.330;23.802;2023-04-20T11:24:32;99718.94;;;21.11;51.85
55675;BME280;41562;44.330;23.802;2023-04-20T11:27:01;99718.22;;;21.14;49.90
55675;BME280;41562;44.330;23.802;2023-04-20T11:29:33;99717.53;;;21.02;51.09
55675;BME280;41562;44.330;23.802;2023-04-20T11:32:03;99718.91;;;21.27;48.70
55675;BME280;41562;44.330;23.802;2023-04-20T11:34:32;99706.19;;;21.50;49.52
55675;BME280;41562;44.330;23.802;2023-04-20T11:37:07;99716.66;;;21.29;48.79
55675;BME280;41562;44.330;23.802;2023-04-20T11:39:36;99709.22;;;21.45;50.10
55675;BME280;41562;44.330;23.802;2023-04-20T11:42:04;99708.22;;;21.53;48.41
55675;BME280;41562;44.330;23.802;2023-04-20T11:44:32;99700.03;;;20.83;50.61
55675;BME280;41562;44.330;23.802;2023-04-20T11:47:00;99702.31;;;20.66;50.49
55675;BME280;41562;44.330;23.802;2023-04-20T11:49:28;99711.59;;;20.33;50.51
55675;BME280;41562;44.330;23.802;2023-04-20T11:51:55;99702.09;;;20.27;51.02
55675;BME280;41562;44.330;23.802;2023-04-20T11:54:23;99697.56;;;20.63;51.04
55675;BME280;41562;44.330;23.802;2023-04-20T11:56:50;99699.50;;;20.78;49.44
55675;BME280;41562;44.330;23.802;2023-04-20T11:59:18;99706.72;;;20.55;51.34
55675;BME280;41562;44.330;23.802;2023-04-20T12:01:46;99700.03;;;20.68;50.62
55675;BME280;41562;44.330;23.802;2023-04-20T12:04:14;99709.38;;;20.23;51.45
55675;BME280;41562;44.330;23.802;2023-04-20T12:06:43;99696.25;;;19.97;51.29
55675;BME280;41562;44.330;23.802;2023-04-20T12:09:10;99698.13;;;20.53;49.83
55675;BME280;41562;44.330;23.802;2023-04-20T12:11:38;99703.81;;;20.20;51.55
55675;BME280;41562;44.330;23.802;2023-04-20T12:14:05;99698.19;;;20.40;50.50
55675;BME280;41562;44.330;23.802;2023-04-20T12:16:33;99703.81;;;20.48;51.70
55675;BME280;41562;44.330;23.802;2023-04-20T12:19:01;99699.31;;;20.55;50.39
55675;BME280;41562;44.330;23.802;2023-04-20T12:21:28;99693.50;;;20.25;50.12
55675;BME280;41562;44.330;23.802;2023-04-20T12:23:55;99692.75;;;20.40;50.51
55675;BME280;41562;44.330;23.802;2023-04-20T12:26:22;99698.81;;;20.34;49.28
55675;BME280;41562;44.330;23.802;2023-04-20T12:29:03;99688.84;;;20.10;49.00
55675;BME280;41562;44.330;23.802;2023-04-20T12:31:30;99688.81;;;20.38;48.40
55675;BME280;41562;44.330;23.802;2023-04-20T12:33:57;99681.44;;;20.38;49.66
55675;BME280;41562;44.330;23.802;2023-04-20T12:36:25;99677.59;;;20.55;49.07
55675;BME280;41562;44.330;23.802;2023-04-20T12:38:52;99687.59;;;20.35;48.85
55675;BME280;41562;44.330;23.802;2023-04-20T12:41:21;99671.72;;;20.37;49.97
55675;BME280;41562;44.330;23.802;2023-04-20T12:43:49;99671.97;;;20.17;48.25
55675;BME280;41562;44.330;23.802;2023-04-20T12:46:16;99672.22;;;20.27;49.69
55675;BME280;41562;44.330;23.802;2023-04-20T12:48:44;99670.13;;;20.68;48.72
55675;BME280;41562;44.330;23.802;2023-04-20T12:51:13;99664.81;;;20.71;48.21
55675;BME280;41562;44.330;23.802;2023-04-20T12:53:40;99659.66;;;21.01;45.30
55675;BME280;41562;44.330;23.802;2023-04-20T12:56:08;99655.91;;;20.90;49.29
55675;BME280;41562;44.330;23.802;2023-04-20T12:58:35;99659.69;;;20.85;47.12
55675;BME280;41562;44.330;23.802;2023-04-20T13:01:03;99657.50;;;20.91;47.53